sensor_id;sensor_type;location;lat;lon;timestamp;P1;durP1;ratioP1;P2;durP2;ratioP2
46330;SDS011;32049;52.346;4.870;2022-10-24T00:01:12;5.23;;;2.33;;
46330;SDS011;32049;52.346;4.870;2022-10-24T00:04:06;6.50;;;1.90;;
46330;SDS011;32049;52.346;4.870;2022-10-24T00:06:59;7.67;;;2.30;;
46330;SDS011;32049;52.346;4.870;2022-10-24T00:09:49;6.83;;;2.17;;
46330;SDS011;32049;52.346;4.870;2022-10-24T00:12:42;6.83;;;2.03;;
46330;SDS011;32049;52.346;4.870;2022-10-24T00:15:33;5.63;;;2.00;;
46330;SDS011;32049;52.346;4.870;2022-10-24T00:18:24;5.13;;;1.90;;
46330;SDS011;32049;52.346;4.870;2022-10-24T00:21:25;12.03;;;2.37;;
46330;SDS011;32049;52.346;4.870;2022-10-24T00:24:16;9.10;;;2.97;;
46330;SDS011;32049;52.346;4.870;2022-10-24T00:27:17;7.73;;;2.67;;
46330;SDS011;32049;52.346;4.870;2022-10-24T00:30:10;7.90;;;2.23;;
46330;SDS011;32049;52.346;4.870;2022-10-24T00:33:12;7.33;;;2.30;;
46330;SDS011;32049;52.346;4.870;2022-10-24T00:36:00;10.13;;;2.87;;
46330;SDS011;32049;52.346;4.870;2022-10-24T00:38:49;7.20;;;2.73;;
46330;SDS011;32049;52.346;4.870;2022-10-24T00:41:41;8.47;;;2.40;;
46330;SDS011;32049;52.346;4.870;2022-10-24T00:44:48;8.30;;;2.47;;
46330;SDS011;32049;52.346;4.870;2022-10-24T00:47:42;9.10;;;2.33;;
46330;SDS011;32049;52.346;4.870;2022-10-24T00:50:34;7.03;;;3.10;;
46330;SDS011;32049;52.346;4.870;2022-10-24T00:53:27;7.17;;;2.73;;
46330;SDS011;32049;52.346;4.870;2022-10-24T00:56:52;9.30;;;2.67;;
46330;SDS011;32049;52.346;4.870;2022-10-24T00:59:59;9.57;;;2.50;;
46330;SDS011;32049;52.346;4.870;2022-10-24T01:03:02;10.47;;;2.93;;
46330;SDS011;32049;52.346;4.870;2022-10-24T01:19:02;7.40;;;2.97;;
46330;SDS011;32049;52.346;4.870;2022-10-24T01:22:16;5.73;;;2.43;;
46330;SDS011;32049;52.346;4.870;2022-10-24T01:25:21;9.83;;;2.30;;
46330;SDS011;32049;52.346;4.870;2022-10-24T01:28:38;7.80;;;2.30;;
46330;SDS011;32049;52.346;4.870;2022-10-24T01:32:00;14.07;;;3.00;;
46330;SDS011;32049;52.346;4.870;2022-10-24T01:35:21;6.90;;;2.07;;
46330;SDS011;32049;52.346;4.870;2022-10-24T01:38:37;8.67;;;2.83;;
46330;SDS011;32049;52.346;4.870;2022-10-24T01:41:32;4.93;;;2.03;;
46330;SDS011;32049;52.346;4.870;2022-10-24T01:44:29;5.05;;;2.20;;
46330;SDS011;32049;52.346;4.870;2022-10-24T01:47:27;6.83;;;2.10;;
46330;SDS011;32049;52.346;4.870;2022-10-24T01:50:29;4.77;;;1.87;;
46330;SDS011;32049;52.346;4.870;2022-10-24T01:53:21;4.90;;;2.27;;
46330;SDS011;32049;52.346;4.870;2022-10-24T01:56:13;7.30;;;2.00;;
46330;SDS011;32049;52.346;4.870;2022-10-24T01:59:07;7.27;;;1.70;;
46330;SDS011;32049;52.346;4.870;2022-10-24T02:09:26;9.03;;;2.40;;
46330;SDS011;32049;52.346;4.870;2022-10-24T02:12:45;4.57;;;1.87;;
46330;SDS011;32049;52.346;4.870;2022-10-24T02:15:52;4.87;;;1.90;;
46330;SDS011;32049;52.346;4.870;2022-10-24T02:18:57;19.77;;;2.75;;
46330;SDS011;32049;52.346;4.870;2022-10-24T02:25:16;8.87;;;1.90;;
46330;SDS011;32049;52.346;4.870;2022-10-24T02:28:16;8.47;;;1.80;;
46330;SDS011;32049;52.346;4.870;2022-10-24T02:31:18;6.40;;;2.13;;
46330;SDS011;32049;52.346;4.870;2022-10-24T02:34:18;4.73;;;1.80;;
46330;SDS011;32049;52.346;4.870;2022-10-24T02:37:08;9.93;;;1.87;;
46330;SDS011;32049;52.346;4.870;2022-10-24T02:39:58;6.27;;;1.70;;
46330;SDS011;32049;52.346;4.870;2022-10-24T02:42:48;4.67;;;1.57;;
46330;SDS011;32049;52.346;4.870;2022-10-24T02:45:41;10.20;;;1.77;;
46330;SDS011;32049;52.346;4.870;2022-10-24T02:48:31;9.37;;;2.40;;
46330;SDS011;32049;52.346;4.870;2022-10-24T02:51:21;5.57;;;1.40;;
46330;SDS011;32049;52.346;4.870;2022-10-24T02:54:15;5.87;;;1.47;;
46330;SDS011;32049;52.346;4.870;2022-10-24T02:57:02;6.07;;;1.80;;
46330;SDS011;32049;52.346;4.870;2022-10-24T02:59:59;4.70;;;1.80;;
46330;SDS011;32049;52.346;4.870;2022-10-24T03:02:53;8.43;;;2.27;;
46330;SDS011;32049;52.346;4.870;2022-10-24T03:05:46;7.00;;;1.63;;
46330;SDS011;32049;52.346;4.870;2022-10-24T03:08:50;6.13;;;1.80;;
46330;SDS011;32049;52.346;4.870;2022-10-24T03:11:41;4.40;;;1.27;;
46330;SDS011;32049;52.346;4.870;2022-10-24T03:14:28;3.70;;;1.63;;
46330;SDS011;32049;52.346;4.870;2022-10-24T03:17:17;3.93;;;1.60;;
46330;SDS011;32049;52.346;4.870;2022-10-24T03:20:08;3.70;;;1.87;;
46330;SDS011;32049;52.346;4.870;2022-10-24T03:22:59;5.83;;;1.73;;
46330;SDS011;32049;52.346;4.870;2022-10-24T03:25:50;7.70;;;1.40;;
46330;SDS011;32049;52.346;4.870;2022-10-24T03:28:43;7.97;;;2.03;;
46330;SDS011;32049;52.346;4.870;2022-10-24T03:31:34;5.20;;;1.57;;
46330;SDS011;32049;52.346;4.870;2022-10-24T03:34:37;4.87;;;1.53;;
46330;SDS011;32049;52.346;4.870;2022-10-24T03:37:30;6.37;;;2.57;;
46330;SDS011;32049;52.346;4.870;2022-10-24T03:40:22;4.93;;;1.43;;
46330;SDS011;32049;52.346;4.870;2022-10-24T03:43:14;8.83;;;2.37;;
46330;SDS011;32049;52.346;4.870;2022-10-24T03:46:08;3.60;;;1.37;;
46330;SDS011;32049;52.346;4.870;2022-10-24T03:49:00;6.40;;;1.90;;
46330;SDS011;32049;52.346;4.870;2022-10-24T03:51:48;4.50;;;1.33;;
46330;SDS011;32049;52.346;4.870;2022-10-24T03:55:06;6.70;;;1.30;;
46330;SDS011;32049;52.346;4.870;2022-10-24T03:57:55;6.17;;;1.03;;
46330;SDS011;32049;52.346;4.870;2022-10-24T04:00:48;7.00;;;1.40;;
46330;SDS011;32049;52.346;4.870;2022-10-24T04:03:36;6.30;;;1.73;;
46330;SDS011;32049;52.346;4.870;2022-10-24T04:06:30;5.27;;;2.23;;
46330;SDS011;32049;52.346;4.870;2022-10-24T04:09:22;6.10;;;1.50;;
46330;SDS011;32049;52.346;4.870;2022-10-24T04:12:17;6.60;;;1.57;;
46330;SDS011;32049;52.346;4.870;2022-10-24T04:15:11;8.60;;;1.80;;
46330;SDS011;32049;52.346;4.870;2022-10-24T04:18:02;7.67;;;1.73;;
46330;SDS011;32049;52.346;4.870;2022-10-24T04:20:50;6.40;;;1.10;;
46330;SDS011;32049;52.346;4.870;2022-10-24T04:23:44;6.82;;;1.40;;
46330;SDS011;32049;52.346;4.870;2022-10-24T04:26:40;8.97;;;1.57;;
46330;SDS011;32049;52.346;4.870;2022-10-24T04:29:31;7.83;;;1.27;;
46330;SDS011;32049;52.346;4.870;2022-10-24T04:32:20;4.43;;;1.00;;
46330;SDS011;32049;52.346;4.870;2022-10-24T04:35:17;10.73;;;2.20;;
46330;SDS011;32049;52.346;4.870;2022-10-24T04:38:16;7.80;;;1.63;;
46330;SDS011;32049;52.346;4.870;2022-10-24T04:41:04;13.70;;;1.70;;
46330;SDS011;32049;52.346;4.870;2022-10-24T04:44:09;5.72;;;1.60;;
46330;SDS011;32049;52.346;4.870;2022-10-24T04:46:56;8.73;;;1.70;;
46330;SDS011;32049;52.346;4.870;2022-10-24T04:49:45;9.70;;;1.77;;
46330;SDS011;32049;52.346;4.870;2022-10-24T04:52:39;12.30;;;1.60;;
46330;SDS011;32049;52.346;4.870;2022-10-24T04:55:28;8.03;;;1.30;;
46330;SDS011;32049;52.346;4.870;2022-10-24T04:58:17;9.47;;;1.80;;
46330;SDS011;32049;52.346;4.870;2022-10-24T05:01:09;3.37;;;1.07;;
46330;SDS011;32049;52.346;4.870;2022-10-24T05:04:03;7.03;;;1.40;;
46330;SDS011;32049;52.346;4.870;2022-10-24T05:07:05;9.67;;;1.40;;
46330;SDS011;32049;52.346;4.870;2022-10-24T05:09:53;8.00;;;1.43;;
46330;SDS011;32049;52.346;4.870;2022-10-24T05:12:42;10.73;;;1.90;;
46330;SDS011;32049;52.346;4.870;2022-10-24T05:15:35;8.47;;;1.47;;
46330;SDS011;32049;52.346;4.870;2022-10-24T05:18:29;6.73;;;1.43;;
46330;SDS011;32049;52.346;4.870;2022-10-24T05:21:17;7.80;;;1.50;;
46330;SDS011;32049;52.346;4.870;2022-10-24T05:24:12;9.55;;;1.95;;
46330;SDS011;32049;52.346;4.870;2022-10-24T05:27:15;7.83;;;1.30;;
46330;SDS011;32049;52.346;4.870;2022-10-24T05:30:10;10.03;;;1.23;;
46330;SDS011;32049;52.346;4.870;2022-10-24T05:33:06;8.07;;;1.37;;
46330;SDS011;32049;52.346;4.870;2022-10-24T05:35:55;7.07;;;1.23;;
46330;SDS011;32049;52.346;4.870;2022-10-24T05:38:54;8.83;;;1.30;;
46330;SDS011;32049;52.346;4.870;2022-10-24T05:41:48;5.83;;;1.30;;
46330;SDS011;32049;52.346;4.870;2022-10-24T05:44:50;13.67;;;1.47;;
46330;SDS011;32049;52.346;4.870;2022-10-24T05:47:38;4.00;;;0.90;;
46330;SDS011;32049;52.346;4.870;2022-10-24T06:02:26;6.33;;;1.30;;
46330;SDS011;32049;52.346;4.870;2022-10-24T06:05:20;6.70;;;1.10;;
46330;SDS011;32049;52.346;4.870;2022-10-24T06:08:24;8.30;;;1.10;;
46330;SDS011;32049;52.346;4.870;2022-10-24T06:11:43;7.03;;;1.13;;
46330;SDS011;32049;52.346;4.870;2022-10-24T06:14:44;6.60;;;1.67;;
46330;SDS011;32049;52.346;4.870;2022-10-24T06:17:56;8.10;;;1.40;;
46330;SDS011;32049;52.346;4.870;2022-10-24T06:20:43;11.60;;;1.30;;
46330;SDS011;32049;52.346;4.870;2022-10-24T06:23:31;6.80;;;1.37;;
46330;SDS011;32049;52.346;4.870;2022-10-24T06:26:19;6.83;;;1.47;;
46330;SDS011;32049;52.346;4.870;2022-10-24T06:29:10;10.37;;;1.87;;
46330;SDS011;32049;52.346;4.870;2022-10-24T06:31:57;8.87;;;1.30;;
46330;SDS011;32049;52.346;4.870;2022-10-24T06:34:45;7.70;;;1.33;;
46330;SDS011;32049;52.346;4.870;2022-10-24T06:37:32;4.70;;;1.30;;
46330;SDS011;32049;52.346;4.870;2022-10-24T06:40:20;6.30;;;1.20;;
46330;SDS011;32049;52.346;4.870;2022-10-24T06:43:07;7.73;;;1.70;;
46330;SDS011;32049;52.346;4.870;2022-10-24T07:05:37;5.10;;;1.40;;
46330;SDS011;32049;52.346;4.870;2022-10-24T07:08:31;8.00;;;1.57;;
46330;SDS011;32049;52.346;4.870;2022-10-24T07:11:47;11.60;;;1.80;;
46330;SDS011;32049;52.346;4.870;2022-10-24T07:14:38;7.83;;;1.17;;
46330;SDS011;32049;52.346;4.870;2022-10-24T07:17:40;8.63;;;1.63;;
46330;SDS011;32049;52.346;4.870;2022-10-24T07:20:30;14.23;;;2.30;;
46330;SDS011;32049;52.346;4.870;2022-10-24T07:23:28;6.70;;;1.73;;
46330;SDS011;32049;52.346;4.870;2022-10-24T07:26:18;5.93;;;1.20;;
46330;SDS011;32049;52.346;4.870;2022-10-24T07:29:17;10.17;;;1.90;;
46330;SDS011;32049;52.346;4.870;2022-10-24T07:32:37;10.75;;;1.58;;
46330;SDS011;32049;52.346;4.870;2022-10-24T07:35:28;9.83;;;1.73;;
46330;SDS011;32049;52.346;4.870;2022-10-24T07:38:23;7.57;;;1.55;;
46330;SDS011;32049;52.346;4.870;2022-10-24T07:41:12;5.93;;;1.50;;
46330;SDS011;32049;52.346;4.870;2022-10-24T07:44:20;11.63;;;2.50;;
46330;SDS011;32049;52.346;4.870;2022-10-24T07:47:21;8.33;;;1.17;;
46330;SDS011;32049;52.346;4.870;2022-10-24T07:50:26;8.40;;;1.48;;
46330;SDS011;32049;52.346;4.870;2022-10-24T07:53:49;5.23;;;1.40;;
46330;SDS011;32049;52.346;4.870;2022-10-24T07:56:45;11.80;;;2.13;;
46330;SDS011;32049;52.346;4.870;2022-10-24T07:59:43;6.57;;;1.10;;
46330;SDS011;32049;52.346;4.870;2022-10-24T08:03:01;8.87;;;1.57;;
46330;SDS011;32049;52.346;4.870;2022-10-24T08:05:55;6.27;;;1.50;;
46330;SDS011;32049;52.346;4.870;2022-10-24T08:09:28;8.53;;;1.47;;
46330;SDS011;32049;52.346;4.870;2022-10-24T08:12:51;8.60;;;1.83;;
46330;SDS011;32049;52.346;4.870;2022-10-24T08:16:18;4.85;;;1.52;;
46330;SDS011;32049;52.346;4.870;2022-10-24T08:19:12;7.87;;;1.47;;
46330;SDS011;32049;52.346;4.870;2022-10-24T08:22:05;6.03;;;1.50;;
46330;SDS011;32049;52.346;4.870;2022-10-24T08:25:02;12.07;;;2.03;;
46330;SDS011;32049;52.346;4.870;2022-10-24T08:28:09;7.60;;;1.30;;
46330;SDS011;32049;52.346;4.870;2022-10-24T08:31:06;6.23;;;1.20;;
46330;SDS011;32049;52.346;4.870;2022-10-24T08:37:13;11.57;;;1.90;;
46330;SDS011;32049;52.346;4.870;2022-10-24T08:40:15;7.97;;;1.77;;
46330;SDS011;32049;52.346;4.870;2022-10-24T08:43:16;9.90;;;1.87;;
46330;SDS011;32049;52.346;4.870;2022-10-24T08:46:53;16.30;;;1.67;;
46330;SDS011;32049;52.346;4.870;2022-10-24T08:54:15;5.30;;;1.30;;
46330;SDS011;32049;52.346;4.870;2022-10-24T08:57:35;5.17;;;1.30;;
46330;SDS011;32049;52.346;4.870;2022-10-24T09:00:55;6.53;;;1.30;;
46330;SDS011;32049;52.346;4.870;2022-10-24T10:25:27;12.10;;;2.27;;
46330;SDS011;32049;52.346;4.870;2022-10-24T10:28:27;8.17;;;1.83;;
46330;SDS011;32049;52.346;4.870;2022-10-24T10:31:22;7.53;;;1.67;;
46330;SDS011;32049;52.346;4.870;2022-10-24T10:34:50;5.77;;;1.37;;
46330;SDS011;32049;52.346;4.870;2022-10-24T10:51:13;4.83;;;0.90;;
46330;SDS011;32049;52.346;4.870;2022-10-24T10:58:04;7.07;;;1.93;;
46330;SDS011;32049;52.346;4.870;2022-10-24T11:05:22;10.53;;;1.93;;
46330;SDS011;32049;52.346;4.870;2022-10-24T11:12:22;4.93;;;1.20;;
46330;SDS011;32049;52.346;4.870;2022-10-24T11:15:25;6.60;;;1.70;;
46330;SDS011;32049;52.346;4.870;2022-10-24T11:18:22;8.60;;;1.30;;
46330;SDS011;32049;52.346;4.870;2022-10-24T11:21:22;4.77;;;1.20;;
46330;SDS011;32049;52.346;4.870;2022-10-24T11:24:17;6.63;;;1.40;;
46330;SDS011;32049;52.346;4.870;2022-10-24T11:27:17;8.03;;;1.50;;
46330;SDS011;32049;52.346;4.870;2022-10-24T11:30:15;8.43;;;1.40;;
46330;SDS011;32049;52.346;4.870;2022-10-24T11:33:30;6.03;;;1.67;;
46330;SDS011;32049;52.346;4.870;2022-10-24T11:40:16;9.97;;;1.50;;
46330;SDS011;32049;52.346;4.870;2022-10-24T11:43:32;6.13;;;1.33;;
46330;SDS011;32049;52.346;4.870;2022-10-24T11:46:48;8.13;;;1.23;;
46330;SDS011;32049;52.346;4.870;2022-10-24T11:50:11;4.83;;;1.03;;
46330;SDS011;32049;52.346;4.870;2022-10-24T11:59:36;5.27;;;0.97;;
46330;SDS011;32049;52.346;4.870;2022-10-24T12:20:16;4.13;;;1.30;;
46330;SDS011;32049;52.346;4.870;2022-10-24T14:30:20;6.83;;;1.53;;
46330;SDS011;32049;52.346;4.870;2022-10-24T14:36:06;4.17;;;1.70;;
46330;SDS011;32049;52.346;4.870;2022-10-24T14:39:04;9.83;;;2.20;;
46330;SDS011;32049;52.346;4.870;2022-10-24T14:41:56;5.43;;;1.67;;
46330;SDS011;32049;52.346;4.870;2022-10-24T14:45:19;5.37;;;1.53;;
46330;SDS011;32049;52.346;4.870;2022-10-24T14:48:22;5.73;;;1.97;;
46330;SDS011;32049;52.346;4.870;2022-10-24T14:51:27;7.50;;;1.80;;
46330;SDS011;32049;52.346;4.870;2022-10-24T14:54:29;9.03;;;2.03;;
46330;SDS011;32049;52.346;4.870;2022-10-24T14:58:25;11.97;;;2.03;;
46330;SDS011;32049;52.346;4.870;2022-10-24T15:01:20;8.90;;;1.80;;
46330;SDS011;32049;52.346;4.870;2022-10-24T15:04:25;10.80;;;1.53;;
46330;SDS011;32049;52.346;4.870;2022-10-24T15:07:29;11.33;;;2.27;;
46330;SDS011;32049;52.346;4.870;2022-10-24T15:10:43;9.23;;;1.90;;
46330;SDS011;32049;52.346;4.870;2022-10-24T15:13:55;13.97;;;2.27;;
46330;SDS011;32049;52.346;4.870;2022-10-24T15:17:03;13.10;;;2.00;;
46330;SDS011;32049;52.346;4.870;2022-10-24T15:20:11;7.07;;;2.37;;
46330;SDS011;32049;52.346;4.870;2022-10-24T15:23:16;7.63;;;2.20;;
46330;SDS011;32049;52.346;4.870;2022-10-24T15:29:40;9.37;;;2.07;;
46330;SDS011;32049;52.346;4.870;2022-10-24T15:32:41;13.33;;;2.37;;
46330;SDS011;32049;52.346;4.870;2022-10-24T15:35:40;12.70;;;2.63;;
46330;SDS011;32049;52.346;4.870;2022-10-24T15:38:57;11.43;;;1.90;;
46330;SDS011;32049;52.346;4.870;2022-10-24T15:42:12;9.10;;;2.07;;
46330;SDS011;32049;52.346;4.870;2022-10-24T15:48:19;10.77;;;2.27;;
46330;SDS011;32049;52.346;4.870;2022-10-24T15:51:17;13.97;;;2.13;;
46330;SDS011;32049;52.346;4.870;2022-10-24T15:54:30;12.60;;;2.20;;
46330;SDS011;32049;52.346;4.870;2022-10-24T15:57:24;17.00;;;2.90;;
46330;SDS011;32049;52.346;4.870;2022-10-24T16:00:25;15.67;;;2.43;;
46330;SDS011;32049;52.346;4.870;2022-10-24T16:03:19;11.27;;;2.00;;
46330;SDS011;32049;52.346;4.870;2022-10-24T16:06:15;13.73;;;2.43;;
46330;SDS011;32049;52.346;4.870;2022-10-24T16:09:08;14.10;;;3.33;;
46330;SDS011;32049;52.346;4.870;2022-10-24T16:12:16;9.50;;;2.13;;
46330;SDS011;32049;52.346;4.870;2022-10-24T16:15:33;14.23;;;2.27;;
46330;SDS011;32049;52.346;4.870;2022-10-24T16:18:41;19.90;;;3.63;;
46330;SDS011;32049;52.346;4.870;2022-10-24T16:35:18;16.20;;;2.73;;
46330;SDS011;32049;52.346;4.870;2022-10-24T16:53:40;13.80;;;2.30;;
46330;SDS011;32049;52.346;4.870;2022-10-24T16:56:42;17.27;;;3.10;;
46330;SDS011;32049;52.346;4.870;2022-10-24T17:00:10;12.90;;;2.67;;
46330;SDS011;32049;52.346;4.870;2022-10-24T17:03:22;8.30;;;1.73;;
46330;SDS011;32049;52.346;4.870;2022-10-24T17:06:17;15.43;;;2.90;;
46330;SDS011;32049;52.346;4.870;2022-10-24T17:09:21;16.27;;;2.40;;
46330;SDS011;32049;52.346;4.870;2022-10-24T17:13:15;14.90;;;2.50;;
46330;SDS011;32049;52.346;4.870;2022-10-24T17:16:25;16.30;;;2.57;;
46330;SDS011;32049;52.346;4.870;2022-10-24T17:19:32;21.33;;;2.77;;
46330;SDS011;32049;52.346;4.870;2022-10-24T17:22:35;11.93;;;2.40;;
46330;SDS011;32049;52.346;4.870;2022-10-24T17:25:48;16.83;;;2.43;;
46330;SDS011;32049;52.346;4.870;2022-10-24T17:28:50;21.33;;;3.30;;
46330;SDS011;32049;52.346;4.870;2022-10-24T17:31:46;19.43;;;3.20;;
46330;SDS011;32049;52.346;4.870;2022-10-24T17:35:05;22.97;;;4.33;;
46330;SDS011;32049;52.346;4.870;2022-10-24T17:41:24;20.07;;;4.07;;
46330;SDS011;32049;52.346;4.870;2022-10-24T17:44:43;20.33;;;3.90;;
46330;SDS011;32049;52.346;4.870;2022-10-24T17:47:32;20.57;;;3.10;;
46330;SDS011;32049;52.346;4.870;2022-10-24T17:50:30;20.37;;;3.20;;
46330;SDS011;32049;52.346;4.870;2022-10-24T17:53:26;23.30;;;3.60;;
46330;SDS011;32049;52.346;4.870;2022-10-24T17:56:16;19.60;;;3.80;;
46330;SDS011;32049;52.346;4.870;2022-10-24T17:59:11;18.77;;;3.43;;
46330;SDS011;32049;52.346;4.870;2022-10-24T18:02:14;17.63;;;3.77;;
46330;SDS011;32049;52.346;4.870;2022-10-24T18:19:29;20.03;;;3.33;;
46330;SDS011;32049;52.346;4.870;2022-10-24T18:45:40;16.00;;;3.30;;
46330;SDS011;32049;52.346;4.870;2022-10-24T18:49:13;17.57;;;3.80;;
46330;SDS011;32049;52.346;4.870;2022-10-24T18:52:44;15.47;;;3.43;;
46330;SDS011;32049;52.346;4.870;2022-10-24T19:23:42;15.00;;;3.80;;
46330;SDS011;32049;52.346;4.870;2022-10-24T19:33:27;12.60;;;3.93;;
46330;SDS011;32049;52.346;4.870;2022-10-24T19:36:15;13.77;;;3.83;;
46330;SDS011;32049;52.346;4.870;2022-10-24T19:48:56;15.87;;;3.90;;
46330;SDS011;32049;52.346;4.870;2022-10-24T19:51:44;16.97;;;4.53;;
46330;SDS011;32049;52.346;4.870;2022-10-24T19:54:31;16.87;;;4.50;;
46330;SDS011;32049;52.346;4.870;2022-10-24T20:25:12;14.37;;;3.97;;
46330;SDS011;32049;52.346;4.870;2022-10-24T20:28:00;12.50;;;3.77;;
46330;SDS011;32049;52.346;4.870;2022-10-24T20:30:47;15.50;;;4.10;;
46330;SDS011;32049;52.346;4.870;2022-10-24T20:33:35;12.60;;;3.53;;
46330;SDS011;32049;52.346;4.870;2022-10-24T20:36:22;15.70;;;3.13;;
46330;SDS011;32049;52.346;4.870;2022-10-24T20:42:13;14.10;;;3.30;;
46330;SDS011;32049;52.346;4.870;2022-10-24T20:45:02;11.50;;;2.67;;
46330;SDS011;32049;52.346;4.870;2022-10-24T20:50:51;17.07;;;3.00;;
46330;SDS011;32049;52.346;4.870;2022-10-24T20:53:42;12.33;;;2.87;;
46330;SDS011;32049;52.346;4.870;2022-10-24T20:56:30;10.90;;;3.20;;
46330;SDS011;32049;52.346;4.870;2022-10-24T21:05:51;8.77;;;2.63;;
46330;SDS011;32049;52.346;4.870;2022-10-24T21:08:38;8.83;;;2.57;;
46330;SDS011;32049;52.346;4.870;2022-10-24T21:11:27;10.50;;;3.07;;
46330;SDS011;32049;52.346;4.870;2022-10-24T21:14:16;9.93;;;2.70;;
46330;SDS011;32049;52.346;4.870;2022-10-24T21:20:23;7.00;;;2.90;;
46330;SDS011;32049;52.346;4.870;2022-10-24T21:23:11;9.53;;;3.07;;
46330;SDS011;32049;52.346;4.870;2022-10-24T21:29:15;10.43;;;3.63;;
46330;SDS011;32049;52.346;4.870;2022-10-24T21:32:20;9.93;;;4.03;;
46330;SDS011;32049;52.346;4.870;2022-10-24T21:35:07;9.20;;;3.37;;
46330;SDS011;32049;52.346;4.870;2022-10-24T21:37:54;7.77;;;3.40;;
46330;SDS011;32049;52.346;4.870;2022-10-24T21:40:42;12.07;;;4.07;;
46330;SDS011;32049;52.346;4.870;2022-10-24T21:43:30;10.27;;;3.70;;
46330;SDS011;32049;52.346;4.870;2022-10-24T21:49:39;9.38;;;3.53;;
46330;SDS011;32049;52.346;4.870;2022-10-24T21:52:27;9.67;;;4.17;;
46330;SDS011;32049;52.346;4.870;2022-10-24T21:58:03;13.83;;;4.47;;
46330;SDS011;32049;52.346;4.870;2022-10-24T22:00:51;9.63;;;3.50;;
46330;SDS011;32049;52.346;4.870;2022-10-24T22:03:38;12.47;;;3.57;;
46330;SDS011;32049;52.346;4.870;2022-10-24T22:13:08;9.73;;;3.43;;
46330;SDS011;32049;52.346;4.870;2022-10-24T22:15:56;11.50;;;3.63;;
46330;SDS011;32049;52.346;4.870;2022-10-24T22:18:44;11.13;;;3.10;;
46330;SDS011;32049;52.346;4.870;2022-10-24T22:24:42;9.97;;;3.30;;
46330;SDS011;32049;52.346;4.870;2022-10-24T22:27:29;13.60;;;3.57;;
46330;SDS011;32049;52.346;4.870;2022-10-24T22:39:31;13.27;;;3.20;;
46330;SDS011;32049;52.346;4.870;2022-10-24T22:42:19;8.37;;;2.70;;
46330;SDS011;32049;52.346;4.870;2022-10-24T22:45:10;11.27;;;3.30;;
46330;SDS011;32049;52.346;4.870;2022-10-24T22:48:07;12.20;;;3.67;;
46330;SDS011;32049;52.346;4.870;2022-10-24T22:51:02;10.80;;;2.60;;
46330;SDS011;32049;52.346;4.870;2022-10-24T22:53:50;11.60;;;3.40;;
46330;SDS011;32049;52.346;4.870;2022-10-24T22:59:54;9.25;;;2.00;;
46330;SDS011;32049;52.346;4.870;2022-10-24T23:05:53;9.57;;;2.30;;
46330;SDS011;32049;52.346;4.870;2022-10-24T23:08:45;9.03;;;2.10;;
46330;SDS011;32049;52.346;4.870;2022-10-24T23:11:32;9.97;;;1.83;;
46330;SDS011;32049;52.346;4.870;2022-10-24T23:14:20;6.37;;;1.80;;
46330;SDS011;32049;52.346;4.870;2022-10-24T23:17:07;4.90;;;2.03;;
46330;SDS011;32049;52.346;4.870;2022-10-24T23:19:59;7.37;;;1.90;;
46330;SDS011;32049;52.346;4.870;2022-10-24T23:22:46;9.10;;;1.80;;
46330;SDS011;32049;52.346;4.870;2022-10-24T23:25:51;8.67;;;3.13;;
46330;SDS011;32049;52.346;4.870;2022-10-24T23:32:04;9.20;;;3.00;;
46330;SDS011;32049;52.346;4.870;2022-10-24T23:41:22;11.40;;;2.20;;
46330;SDS011;32049;52.346;4.870;2022-10-24T23:47:41;6.50;;;2.70;;
46330;SDS011;32049;52.346;4.870;2022-10-24T23:53:50;10.07;;;2.70;;
46330;SDS011;32049;52.346;4.870;2022-10-24T23:56:39;7.30;;;2.33;;
46330;SDS011;32049;52.346;4.870;2022-10-24T23:59:27;9.60;;;2.40;;
